Boxville, Kentucky
Current Conditions -  °F | °C
As of 7:35 PM on Saturday 25 Oct 2014 (Local Time) from K5M9 Reporting Station
Clear Clear  
Wind Chill: 65°   Ceiling: Unl
Heat Index: 65°   Visibility: 10mi
Dew Point: 60°   Wind: 3mph
Humidity: 83%   Direction: 250°WSW
Pressure: 30.01"   Gusts: NA
Location:  37.6418°N, 87.8654°W
Report Text: K5M9 260035Z AUTO 25003KT 10SM CLR 19/16 A3001 RMK AO2 T01860156
Loading
Personal Weather Stations






























Interactive Weather Map
Tropical Storm Tracking
New forecast layout! Learn more

10-Day Weather Forecast

Advertisements
Track Severe Weather on mobile